• Join FlightAware (Why Join?)
  • Login
  • US Flag 
08:32PM EDT


 

Airport Tracker/Info


-or-


 

Live Flight TrackerFlight Track Log ✈ N447ND ✈ 28-Jun-2013 ✈ KLEE - KFPR

Flight Track Log - Related Links

Times and Time Zones

All times are in EDT time to prevent confusion due to time zone crossing. See the N447ND flight status page for this flight to view local times or setup timezone preferences in your user account.

Time Position Orientation Groundspeed Altitude Reporting Facility
EDT Latitude Longitude Course Direction KTS MPH feet Rate Location/Type
10:39PM 28.8000 -81.8167 139° Southeast 67 77 2,200  Level Orlando TRACON
10:40PM 28.7833 -81.8000 139° Southeast 75 86 2,800 540 Climbing Orlando TRACON
10:41PM 28.7667 -81.7833 139° Southeast 75 86 3,400 480 Climbing Orlando TRACON
10:42PM 28.7500 -81.7667 139° Southeast 78 90 3,900 300 Climbing Orlando TRACON
10:43PM 28.7167 -81.7500 156° South 91 105 4,100 60 Climbing Orlando TRACON
10:44PM 28.7000 -81.7333 139° Southeast 107 123 4,100  Level Orlando TRACON
10:45PM 28.6833 -81.7333 180° South 102 117 4,100  Level Orlando TRACON
10:46PM 28.6667 -81.7167 139° Southeast 98 113 4,100  Level Orlando TRACON
10:47PM 28.6333 -81.7000 156° South 94 108 4,100  Level Orlando TRACON
10:48PM 28.6167 -81.6833 139° Southeast 95 109 4,100  Level Orlando TRACON
10:49PM 28.6000 -81.6667 139° Southeast 96 110 4,100  Level Orlando TRACON
10:50PM 28.5667 -81.6333 139° Southeast 95 109 4,100  Level Orlando TRACON
10:51PM 28.5500 -81.6167 139° Southeast 94 108 4,100  Level Orlando TRACON
10:52PM 28.5333 -81.6000 139° Southeast 93 107 4,100  Level Orlando TRACON
10:53PM 28.5167 -81.5833 139° Southeast 104 120 4,100  Level Orlando TRACON
10:54PM 28.5167 -81.5500 90° East 100 115 4,100  Level Orlando TRACON
10:55PM 28.5000 -81.5167 120° Southeast 96 110 4,100  Level Orlando TRACON
10:56PM 28.5000 -81.5000 90° East 99 114 4,100  Level Orlando TRACON
10:57PM 28.4833 -81.4667 120° Southeast 99 114 4,100  Level Orlando TRACON
10:58PM 28.4833 -81.4333 90° East 101 116 4,100  Level Orlando TRACON
10:59PM 28.4667 -81.4000 120° Southeast 100 115 4,100  Level Orlando TRACON
11:00PM 28.4667 -81.3667 90° East 96 110 4,100  Level Orlando TRACON
11:01PM 28.4500 -81.3500 139° Southeast 96 110 4,100  Level Orlando TRACON
11:02PM 28.4500 -81.3167 90° East 99 114 4,100  Level Orlando TRACON
11:03PM 28.4500 -81.2833 90° East 101 116 4,100  Level Orlando TRACON
11:04PM 28.4333 -81.2500 120° Southeast 100 115 4,100  Level Orlando TRACON
11:05PM 28.4333 -81.2167 90° East 102 117 4,100  Level Orlando TRACON
11:06PM 28.4167 -81.2000 139° Southeast 99 114 4,100  Level Orlando TRACON
11:07PM 28.4167 -81.1667 90° East 101 116 4,100  Level Orlando TRACON
11:08PM 28.4000 -81.1333 120° Southeast 98 113 4,100  Level Orlando TRACON
11:09PM 28.3833 -81.1000 120° Southeast 97 112 4,100  Level Orlando TRACON
11:10PM 28.3667 -81.0833 139° Southeast 109 125 4,100  Level Orlando TRACON
11:11PM 28.3333 -81.0667 156° South 119 137 4,100  Level Orlando TRACON
11:12PM 28.3167 -81.0500 139° Southeast 115 132 4,100  Level Orlando TRACON
11:13PM 28.2833 -81.0167 139° Southeast 112 129 4,100  Level Orlando TRACON
11:14PM 28.2667 -81.0000 139° Southeast 114 131 4,100  Level Orlando TRACON
11:15PM 28.2250 -80.9756 153° Southeast 107 123 4,100  Level Miami Center
11:16PM 28.1964 -80.9533 146° Southeast 112 129 4,100  Level Miami Center
11:17PM 28.1700 -80.9311 143° Southeast 112 129 4,100  Level Miami Center
11:18PM 28.1456 -80.9089 141° Southeast 112 129 4,100  Level Miami Center
11:19PM 28.1228 -80.8942 150° Southeast 112 129 4,100  Level Miami Center
11:20PM 28.0964 -80.8697 141° Southeast 117 135 4,100  Level Miami Center
11:21PM 28.0678 -80.8475 146° Southeast 117 135 4,100  Level Miami Center
11:22PM 28.0475 -80.8303 143° Southeast 122 140 4,100  Level Miami Center
11:23PM 28.0169 -80.8033 142° Southeast 122 140 4,100  Level Miami Center
11:24PM 27.9925 -80.7836 145° Southeast 122 140 4,100  Level Miami Center
11:25PM 27.9658 -80.7614 144° Southeast 122 140 4,100  Level Miami Center
11:26PM 27.9433 -80.7419 143° Southeast 122 140 4,100  Level Miami Center
11:27PM 27.9189 -80.7222 145° Southeast 122 140 4,100  Level Miami Center
11:28PM 27.8903 -80.7003 146° Southeast 122 140 4,100  Level Miami Center
11:29PM 27.8658 -80.6783 142° Southeast 122 140 4,100  Level Miami Center
11:30PM 27.8414 -80.6586 144° Southeast 122 140 4,100 -180 Level Miami Center
11:31PM 27.8169 -80.6367 142° Southeast 122 140 3,800 -420 Descending Miami Center
11:32PM 27.7881 -80.6147 146° Southeast 122 140 3,300 -360 Descending Miami Center
11:33PM 27.7575 -80.5903 145° Southeast 122 140 3,100 -120 Descending Miami Center
11:34PM 27.7331 -80.5658 138° Southeast 122 140 3,100  Level Miami Center
11:35PM 27.7064 -80.5464 147° Southeast 122 140 3,100  Level Miami Center
11:36PM 27.6819 -80.5244 142° Southeast 122 140 3,100 -60 Level Miami Center
11:37PM 27.6575 -80.5050 145° Southeast 122 140 3,000 -300 Descending Miami Center
11:38PM 27.6267 -80.4781 142° Southeast 122 140 2,600 -420 Descending Miami Center